sensor_id;sensor_type;location;lat;lon;timestamp;temperature;humidity
28761;DHT22;15917;50.014;8.352;2023-07-29T00:02:05;18.70;99.90
28761;DHT22;15917;50.014;8.352;2023-07-29T00:04:30;18.70;99.90
28761;DHT22;15917;50.014;8.352;2023-07-29T00:06:56;18.50;99.90
28761;DHT22;15917;50.014;8.352;2023-07-29T00:09:21;18.60;99.90
28761;DHT22;15917;50.014;8.352;2023-07-29T00:11:47;18.70;99.90
28761;DHT22;15917;50.014;8.352;2023-07-29T00:14:13;18.70;99.90
28761;DHT22;15917;50.014;8.352;2023-07-29T00:16:38;18.60;99.90
28761;DHT22;15917;50.014;8.352;2023-07-29T00:19:04;18.60;99.90
28761;DHT22;15917;50.014;8.352;2023-07-29T00:21:30;18.60;99.90
28761;DHT22;15917;50.014;8.352;2023-07-29T00:23:55;18.60;99.90
28761;DHT22;15917;50.014;8.352;2023-07-29T00:26:24;18.60;99.90
28761;DHT22;15917;50.014;8.352;2023-07-29T00:28:51;18.60;99.90
28761;DHT22;15917;50.014;8.352;2023-07-29T00:31:17;18.60;99.90
28761;DHT22;15917;50.014;8.352;2023-07-29T00:33:43;18.60;99.90
28761;DHT22;15917;50.014;8.352;2023-07-29T00:36:08;18.50;99.90
28761;DHT22;15917;50.014;8.352;2023-07-29T00:38:34;18.50;99.90
28761;DHT22;15917;50.014;8.352;2023-07-29T00:41:02;18.50;99.90
28761;DHT22;15917;50.014;8.352;2023-07-29T00:43:28;18.60;99.90
28761;DHT22;15917;50.014;8.352;2023-07-29T00:45:54;18.50;99.90
28761;DHT22;15917;50.014;8.352;2023-07-29T00:48:20;18.50;99.90
28761;DHT22;15917;50.014;8.352;2023-07-29T00:50:46;18.50;99.90
28761;DHT22;15917;50.014;8.352;2023-07-29T00:53:12;18.50;99.90
28761;DHT22;15917;50.014;8.352;2023-07-29T00:55:37;18.50;99.90
28761;DHT22;15917;50.014;8.352;2023-07-29T00:58:03;18.50;99.90
28761;DHT22;15917;50.014;8.352;2023-07-29T01:00:28;18.50;99.90
28761;DHT22;15917;50.014;8.352;2023-07-29T01:02:54;18.50;99.90
28761;DHT22;15917;50.014;8.352;2023-07-29T01:05:20;18.50;99.90
28761;DHT22;15917;50.014;8.352;2023-07-29T01:10:32;18.50;99.90
28761;DHT22;15917;50.014;8.352;2023-07-29T01:15:38;18.50;99.90
28761;DHT22;15917;50.014;8.352;2023-07-29T01:18:28;18.50;99.90
28761;DHT22;15917;50.014;8.352;2023-07-29T01:20:59;18.40;99.90
28761;DHT22;15917;50.014;8.352;2023-07-29T01:23:35;18.50;99.90
28761;DHT22;15917;50.014;8.352;2023-07-29T01:26:02;18.50;99.90
28761;DHT22;15917;50.014;8.352;2023-07-29T01:28:28;18.50;99.90
28761;DHT22;15917;50.014;8.352;2023-07-29T01:31:07;18.50;99.90
28761;DHT22;15917;50.014;8.352;2023-07-29T01:33:53;18.50;99.90
28761;DHT22;15917;50.014;8.352;2023-07-29T01:36:22;18.50;99.90
28761;DHT22;15917;50.014;8.352;2023-07-29T01:38:52;18.50;99.90
28761;DHT22;15917;50.014;8.352;2023-07-29T01:41:20;18.50;99.90
28761;DHT22;15917;50.014;8.352;2023-07-29T01:43:47;18.50;99.90
28761;DHT22;15917;50.014;8.352;2023-07-29T01:46:14;18.50;99.90
28761;DHT22;15917;50.014;8.352;2023-07-29T01:48:40;18.50;99.90
28761;DHT22;15917;50.014;8.352;2023-07-29T01:51:06;18.50;99.90
28761;DHT22;15917;50.014;8.352;2023-07-29T01:53:32;18.50;99.90
28761;DHT22;15917;50.014;8.352;2023-07-29T01:55:58;18.60;99.90
28761;DHT22;15917;50.014;8.352;2023-07-29T01:58:24;18.60;99.90
28761;DHT22;15917;50.014;8.352;2023-07-29T02:00:51;18.50;99.90
28761;DHT22;15917;50.014;8.352;2023-07-29T02:03:16;18.50;99.90
28761;DHT22;15917;50.014;8.352;2023-07-29T02:05:42;18.50;99.90
28761;DHT22;15917;50.014;8.352;2023-07-29T02:08:10;18.50;99.90
28761;DHT22;15917;50.014;8.352;2023-07-29T02:10:36;18.50;99.90
28761;DHT22;15917;50.014;8.352;2023-07-29T02:13:03;18.50;99.90
28761;DHT22;15917;50.014;8.352;2023-07-29T02:15:29;18.50;99.90
28761;DHT22;15917;50.014;8.352;2023-07-29T02:17:55;18.50;99.90
28761;DHT22;15917;50.014;8.352;2023-07-29T02:20:20;18.50;99.90
28761;DHT22;15917;50.014;8.352;2023-07-29T02:22:46;18.50;99.90
28761;DHT22;15917;50.014;8.352;2023-07-29T02:25:14;18.50;99.90
28761;DHT22;15917;50.014;8.352;2023-07-29T02:27:39;18.50;99.90
28761;DHT22;15917;50.014;8.352;2023-07-29T02:30:05;18.60;99.90
28761;DHT22;15917;50.014;8.352;2023-07-29T02:32:31;18.60;99.90
28761;DHT22;15917;50.014;8.352;2023-07-29T02:34:57;18.60;99.90
28761;DHT22;15917;50.014;8.352;2023-07-29T02:37:22;18.60;99.90
28761;DHT22;15917;50.014;8.352;2023-07-29T02:39:48;18.60;99.90
28761;DHT22;15917;50.014;8.352;2023-07-29T02:42:14;18.60;99.90
28761;DHT22;15917;50.014;8.352;2023-07-29T02:44:40;18.60;99.90
28761;DHT22;15917;50.014;8.352;2023-07-29T02:47:06;18.60;99.90
28761;DHT22;15917;50.014;8.352;2023-07-29T02:49:31;18.60;99.90
28761;DHT22;15917;50.014;8.352;2023-07-29T02:51:57;18.50;99.90
28761;DHT22;15917;50.014;8.352;2023-07-29T02:54:22;18.50;99.90
28761;DHT22;15917;50.014;8.352;2023-07-29T02:56:50;18.60;99.90
28761;DHT22;15917;50.014;8.352;2023-07-29T02:59:16;18.60;99.90
28761;DHT22;15917;50.014;8.352;2023-07-29T03:01:42;18.50;99.90
28761;DHT22;15917;50.014;8.352;2023-07-29T03:04:07;18.50;99.90
28761;DHT22;15917;50.014;8.352;2023-07-29T03:06:33;18.50;99.90
28761;DHT22;15917;50.014;8.352;2023-07-29T03:09:01;18.50;99.90
28761;DHT22;15917;50.014;8.352;2023-07-29T03:11:26;18.50;99.90
28761;DHT22;15917;50.014;8.352;2023-07-29T03:13:52;18.50;99.90
28761;DHT22;15917;50.014;8.352;2023-07-29T03:16:18;18.50;99.90
28761;DHT22;15917;50.014;8.352;2023-07-29T03:18:52;18.50;99.90
28761;DHT22;15917;50.014;8.352;2023-07-29T03:21:17;18.40;99.90
28761;DHT22;15917;50.014;8.352;2023-07-29T03:23:43;18.50;99.90
28761;DHT22;15917;50.014;8.352;2023-07-29T03:26:09;18.50;99.90
28761;DHT22;15917;50.014;8.352;2023-07-29T03:28:41;18.50;99.90
28761;DHT22;15917;50.014;8.352;2023-07-29T03:31:07;18.50;99.90
28761;DHT22;15917;50.014;8.352;2023-07-29T03:33:33;18.50;99.90
28761;DHT22;15917;50.014;8.352;2023-07-29T03:35:59;18.50;99.90
28761;DHT22;15917;50.014;8.352;2023-07-29T03:38:24;18.50;99.90
28761;DHT22;15917;50.014;8.352;2023-07-29T03:40:51;18.50;99.90
28761;DHT22;15917;50.014;8.352;2023-07-29T03:43:16;18.50;99.90
28761;DHT22;15917;50.014;8.352;2023-07-29T03:45:43;18.50;99.90
28761;DHT22;15917;50.014;8.352;2023-07-29T03:48:08;18.50;99.90
28761;DHT22;15917;50.014;8.352;2023-07-29T03:50:35;18.50;99.90
28761;DHT22;15917;50.014;8.352;2023-07-29T03:53:02;18.50;99.90
28761;DHT22;15917;50.014;8.352;2023-07-29T03:55:28;18.50;99.90
28761;DHT22;15917;50.014;8.352;2023-07-29T03:57:56;18.50;99.90
28761;DHT22;15917;50.014;8.352;2023-07-29T04:00:22;18.50;99.90
28761;DHT22;15917;50.014;8.352;2023-07-29T04:02:48;18.50;99.90
28761;DHT22;15917;50.014;8.352;2023-07-29T04:05:14;18.50;99.90
28761;DHT22;15917;50.014;8.352;2023-07-29T04:07:40;18.50;99.90
28761;DHT22;15917;50.014;8.352;2023-07-29T04:10:06;18.50;99.90
28761;DHT22;15917;50.014;8.352;2023-07-29T04:12:32;18.50;99.90
28761;DHT22;15917;50.014;8.352;2023-07-29T04:14:57;18.50;99.90
28761;DHT22;15917;50.014;8.352;2023-07-29T04:17:23;18.40;99.90
28761;DHT22;15917;50.014;8.352;2023-07-29T04:19:49;18.40;99.90
28761;DHT22;15917;50.014;8.352;2023-07-29T04:22:16;18.40;99.90
28761;DHT22;15917;50.014;8.352;2023-07-29T04:24:42;18.40;99.90
28761;DHT22;15917;50.014;8.352;2023-07-29T04:27:08;18.40;99.90
28761;DHT22;15917;50.014;8.352;2023-07-29T04:29:33;18.40;99.90
28761;DHT22;15917;50.014;8.352;2023-07-29T04:32:01;18.40;99.90
28761;DHT22;15917;50.014;8.352;2023-07-29T04:34:27;18.40;99.90
28761;DHT22;15917;50.014;8.352;2023-07-29T04:36:53;18.40;99.90
28761;DHT22;15917;50.014;8.352;2023-07-29T04:39:18;18.40;99.90
28761;DHT22;15917;50.014;8.352;2023-07-29T04:41:44;18.50;99.90
28761;DHT22;15917;50.014;8.352;2023-07-29T04:44:09;18.50;99.90
28761;DHT22;15917;50.014;8.352;2023-07-29T04:46:36;18.40;99.90
28761;DHT22;15917;50.014;8.352;2023-07-29T04:49:02;18.50;99.90
28761;DHT22;15917;50.014;8.352;2023-07-29T04:51:28;18.40;99.90
28761;DHT22;15917;50.014;8.352;2023-07-29T04:53:54;18.40;99.90
28761;DHT22;15917;50.014;8.352;2023-07-29T04:56:20;18.40;99.90
28761;DHT22;15917;50.014;8.352;2023-07-29T04:58:45;18.40;99.90
28761;DHT22;15917;50.014;8.352;2023-07-29T05:01:11;18.30;99.90
28761;DHT22;15917;50.014;8.352;2023-07-29T05:03:37;18.30;99.90
28761;DHT22;15917;50.014;8.352;2023-07-29T05:06:05;18.30;99.90
28761;DHT22;15917;50.014;8.352;2023-07-29T05:08:30;18.30;99.90
28761;DHT22;15917;50.014;8.352;2023-07-29T05:10:56;18.30;99.90
28761;DHT22;15917;50.014;8.352;2023-07-29T05:13:22;18.40;99.90
28761;DHT22;15917;50.014;8.352;2023-07-29T05:15:48;18.50;99.90
28761;DHT22;15917;50.014;8.352;2023-07-29T05:18:15;18.60;99.90
28761;DHT22;15917;50.014;8.352;2023-07-29T05:20:40;18.60;99.90
28761;DHT22;15917;50.014;8.352;2023-07-29T05:23:06;18.60;99.90
28761;DHT22;15917;50.014;8.352;2023-07-29T05:25:32;18.60;99.90
28761;DHT22;15917;50.014;8.352;2023-07-29T05:28:03;18.60;99.90
28761;DHT22;15917;50.014;8.352;2023-07-29T05:30:29;18.60;99.90
28761;DHT22;15917;50.014;8.352;2023-07-29T05:33:03;18.60;99.90
28761;DHT22;15917;50.014;8.352;2023-07-29T05:35:29;18.70;99.90
28761;DHT22;15917;50.014;8.352;2023-07-29T05:37:55;18.80;99.90
28761;DHT22;15917;50.014;8.352;2023-07-29T05:40:20;18.80;99.90
28761;DHT22;15917;50.014;8.352;2023-07-29T05:42:46;18.90;99.90
28761;DHT22;15917;50.014;8.352;2023-07-29T05:45:13;19.00;99.90
28761;DHT22;15917;50.014;8.352;2023-07-29T05:47:38;19.00;99.90
28761;DHT22;15917;50.014;8.352;2023-07-29T05:50:04;19.00;99.90
28761;DHT22;15917;50.014;8.352;2023-07-29T05:52:31;19.10;99.90
28761;DHT22;15917;50.014;8.352;2023-07-29T05:54:57;19.10;99.90
28761;DHT22;15917;50.014;8.352;2023-07-29T05:57:22;19.00;99.90
28761;DHT22;15917;50.014;8.352;2023-07-29T05:59:48;19.00;99.90
28761;DHT22;15917;50.014;8.352;2023-07-29T06:02:14;19.00;99.90
28761;DHT22;15917;50.014;8.352;2023-07-29T06:04:39;18.90;99.90
28761;DHT22;15917;50.014;8.352;2023-07-29T06:07:07;18.90;99.90
28761;DHT22;15917;50.014;8.352;2023-07-29T06:09:33;18.80;99.90
28761;DHT22;15917;50.014;8.352;2023-07-29T06:11:58;18.80;99.90
28761;DHT22;15917;50.014;8.352;2023-07-29T06:14:24;18.70;99.90
28761;DHT22;15917;50.014;8.352;2023-07-29T06:16:50;18.70;99.90
28761;DHT22;15917;50.014;8.352;2023-07-29T06:19:15;18.70;99.90
28761;DHT22;15917;50.014;8.352;2023-07-29T06:21:42;18.70;99.90
28761;DHT22;15917;50.014;8.352;2023-07-29T06:24:07;18.60;99.90
28761;DHT22;15917;50.014;8.352;2023-07-29T06:26:33;18.70;99.90
28761;DHT22;15917;50.014;8.352;2023-07-29T06:28:58;18.70;99.90
28761;DHT22;15917;50.014;8.352;2023-07-29T06:31:24;18.70;99.90
28761;DHT22;15917;50.014;8.352;2023-07-29T06:33:50;18.70;99.90
28761;DHT22;15917;50.014;8.352;2023-07-29T06:36:15;18.70;99.90
28761;DHT22;15917;50.014;8.352;2023-07-29T06:38:41;18.70;99.90
28761;DHT22;15917;50.014;8.352;2023-07-29T06:41:07;18.70;99.90
28761;DHT22;15917;50.014;8.352;2023-07-29T06:43:32;18.70;99.90
28761;DHT22;15917;50.014;8.352;2023-07-29T06:45:58;18.60;99.90
28761;DHT22;15917;50.014;8.352;2023-07-29T06:48:24;18.60;99.90
28761;DHT22;15917;50.014;8.352;2023-07-29T06:50:49;18.60;99.90
28761;DHT22;15917;50.014;8.352;2023-07-29T06:53:18;18.60;99.90
28761;DHT22;15917;50.014;8.352;2023-07-29T06:55:44;18.60;99.90
28761;DHT22;15917;50.014;8.352;2023-07-29T06:58:10;18.60;99.90
28761;DHT22;15917;50.014;8.352;2023-07-29T07:00:36;18.70;99.90
28761;DHT22;15917;50.014;8.352;2023-07-29T07:03:01;18.70;99.90
28761;DHT22;15917;50.014;8.352;2023-07-29T07:05:27;18.70;99.90
28761;DHT22;15917;50.014;8.352;2023-07-29T07:07:52;18.70;99.90
28761;DHT22;15917;50.014;8.352;2023-07-29T07:10:18;18.70;99.90
28761;DHT22;15917;50.014;8.352;2023-07-29T07:12:44;18.70;99.90
28761;DHT22;15917;50.014;8.352;2023-07-29T07:15:09;18.80;99.90
28761;DHT22;15917;50.014;8.352;2023-07-29T07:17:35;18.80;99.90
28761;DHT22;15917;50.014;8.352;2023-07-29T07:20:01;18.80;99.90
28761;DHT22;15917;50.014;8.352;2023-07-29T07:22:26;18.80;99.90
28761;DHT22;15917;50.014;8.352;2023-07-29T07:24:52;18.80;99.90
28761;DHT22;15917;50.014;8.352;2023-07-29T07:27:18;18.80;99.90
28761;DHT22;15917;50.014;8.352;2023-07-29T07:29:43;18.80;99.90
28761;DHT22;15917;50.014;8.352;2023-07-29T07:32:09;18.90;99.90
28761;DHT22;15917;50.014;8.352;2023-07-29T07:34:34;18.90;99.90
28761;DHT22;15917;50.014;8.352;2023-07-29T07:37:00;19.00;99.90
28761;DHT22;15917;50.014;8.352;2023-07-29T07:39:26;19.00;99.90
28761;DHT22;15917;50.014;8.352;2023-07-29T07:41:52;19.00;99.90
28761;DHT22;15917;50.014;8.352;2023-07-29T07:44:17;19.10;99.90
28761;DHT22;15917;50.014;8.352;2023-07-29T07:46:45;19.20;99.90
28761;DHT22;15917;50.014;8.352;2023-07-29T07:49:10;19.20;99.90
28761;DHT22;15917;50.014;8.352;2023-07-29T07:51:36;19.20;99.90
28761;DHT22;15917;50.014;8.352;2023-07-29T07:54:02;19.20;99.90
28761;DHT22;15917;50.014;8.352;2023-07-29T07:56:27;19.20;99.90
28761;DHT22;15917;50.014;8.352;2023-07-29T07:58:53;19.20;99.90
28761;DHT22;15917;50.014;8.352;2023-07-29T08:01:18;19.40;99.90
28761;DHT22;15917;50.014;8.352;2023-07-29T08:03:45;19.50;99.90
28761;DHT22;15917;50.014;8.352;2023-07-29T08:06:10;19.60;99.90
28761;DHT22;15917;50.014;8.352;2023-07-29T08:08:36;19.70;99.90
28761;DHT22;15917;50.014;8.352;2023-07-29T08:11:01;19.90;99.90
28761;DHT22;15917;50.014;8.352;2023-07-29T08:13:27;20.20;99.90
28761;DHT22;15917;50.014;8.352;2023-07-29T08:15:53;20.40;99.90
28761;DHT22;15917;50.014;8.352;2023-07-29T08:18:19;20.50;99.90
28761;DHT22;15917;50.014;8.352;2023-07-29T08:20:57;20.50;99.90
28761;DHT22;15917;50.014;8.352;2023-07-29T08:23:32;20.60;99.90
28761;DHT22;15917;50.014;8.352;2023-07-29T08:25:59;20.50;99.90
28761;DHT22;15917;50.014;8.352;2023-07-29T08:28:36;20.60;99.90
28761;DHT22;15917;50.014;8.352;2023-07-29T08:31:02;20.60;99.90
28761;DHT22;15917;50.014;8.352;2023-07-29T08:33:29;20.80;99.90
28761;DHT22;15917;50.014;8.352;2023-07-29T08:35:54;20.90;99.90
28761;DHT22;15917;50.014;8.352;2023-07-29T08:38:20;21.10;99.90
28761;DHT22;15917;50.014;8.352;2023-07-29T08:43:20;21.30;99.90
28761;DHT22;15917;50.014;8.352;2023-07-29T08:45:50;21.40;99.90
28761;DHT22;15917;50.014;8.352;2023-07-29T08:48:21;21.60;99.90
28761;DHT22;15917;50.014;8.352;2023-07-29T08:50:49;21.70;99.90
28761;DHT22;15917;50.014;8.352;2023-07-29T08:53:15;21.70;99.90
28761;DHT22;15917;50.014;8.352;2023-07-29T08:55:41;21.80;99.90
28761;DHT22;15917;50.014;8.352;2023-07-29T08:58:07;21.80;99.90
28761;DHT22;15917;50.014;8.352;2023-07-29T09:00:34;21.90;99.90
28761;DHT22;15917;50.014;8.352;2023-07-29T09:03:00;21.90;99.90
28761;DHT22;15917;50.014;8.352;2023-07-29T09:05:33;22.00;99.90
28761;DHT22;15917;50.014;8.352;2023-07-29T09:07:59;22.10;99.90
28761;DHT22;15917;50.014;8.352;2023-07-29T09:10:26;22.20;99.90
28761;DHT22;15917;50.014;8.352;2023-07-29T09:12:52;22.20;99.90
28761;DHT22;15917;50.014;8.352;2023-07-29T09:15:31;22.20;99.90
28761;DHT22;15917;50.014;8.352;2023-07-29T09:17:58;22.20;99.90
28761;DHT22;15917;50.014;8.352;2023-07-29T09:20:27;22.10;99.90
28761;DHT22;15917;50.014;8.352;2023-07-29T09:22:55;22.10;99.90
28761;DHT22;15917;50.014;8.352;2023-07-29T09:25:28;22.10;99.90
28761;DHT22;15917;50.014;8.352;2023-07-29T09:28:01;22.10;99.90
28761;DHT22;15917;50.014;8.352;2023-07-29T09:30:27;22.20;99.90
28761;DHT22;15917;50.014;8.352;2023-07-29T09:32:57;22.20;99.90
28761;DHT22;15917;50.014;8.352;2023-07-29T09:35:23;22.20;99.90
28761;DHT22;15917;50.014;8.352;2023-07-29T09:37:50;22.30;99.90
28761;DHT22;15917;50.014;8.352;2023-07-29T09:40:17;22.50;99.90
28761;DHT22;15917;50.014;8.352;2023-07-29T09:42:54;22.40;99.90
28761;DHT22;15917;50.014;8.352;2023-07-29T09:45:24;22.50;99.90
28761;DHT22;15917;50.014;8.352;2023-07-29T09:47:51;22.70;99.90
28761;DHT22;15917;50.014;8.352;2023-07-29T09:50:17;23.00;99.90
28761;DHT22;15917;50.014;8.352;2023-07-29T09:52:43;23.20;99.90
28761;DHT22;15917;50.014;8.352;2023-07-29T09:55:11;23.00;99.90
28761;DHT22;15917;50.014;8.352;2023-07-29T09:57:37;22.90;99.90
28761;DHT22;15917;50.014;8.352;2023-07-29T10:00:04;22.80;99.90
28761;DHT22;15917;50.014;8.352;2023-07-29T10:02:37;22.70;99.90
28761;DHT22;15917;50.014;8.352;2023-07-29T10:05:04;22.70;99.90
28761;DHT22;15917;50.014;8.352;2023-07-29T10:07:31;23.00;99.90
28761;DHT22;15917;50.014;8.352;2023-07-29T10:09:58;23.10;99.90
28761;DHT22;15917;50.014;8.352;2023-07-29T10:12:25;23.10;99.90
28761;DHT22;15917;50.014;8.352;2023-07-29T10:14:52;23.00;99.90
28761;DHT22;15917;50.014;8.352;2023-07-29T10:17:20;23.00;99.90
28761;DHT22;15917;50.014;8.352;2023-07-29T10:19:46;23.00;99.90
28761;DHT22;15917;50.014;8.352;2023-07-29T10:22:13;23.10;99.90
28761;DHT22;15917;50.014;8.352;2023-07-29T10:24:41;23.40;99.90
28761;DHT22;15917;50.014;8.352;2023-07-29T10:27:11;23.40;99.90
28761;DHT22;15917;50.014;8.352;2023-07-29T10:29:39;23.40;99.90
28761;DHT22;15917;50.014;8.352;2023-07-29T10:32:09;23.50;99.90
28761;DHT22;15917;50.014;8.352;2023-07-29T10:34:36;23.80;99.90
28761;DHT22;15917;50.014;8.352;2023-07-29T10:37:02;23.80;99.90
28761;DHT22;15917;50.014;8.352;2023-07-29T10:39:38;23.70;99.90
28761;DHT22;15917;50.014;8.352;2023-07-29T10:42:05;23.50;99.90
28761;DHT22;15917;50.014;8.352;2023-07-29T10:47:28;23.10;99.90
28761;DHT22;15917;50.014;8.352;2023-07-29T10:49:58;22.90;99.90
28761;DHT22;15917;50.014;8.352;2023-07-29T10:55:02;22.90;99.90
28761;DHT22;15917;50.014;8.352;2023-07-29T10:57:38;22.90;99.90
28761;DHT22;15917;50.014;8.352;2023-07-29T11:00:07;22.80;99.90
28761;DHT22;15917;50.014;8.352;2023-07-29T11:02:37;22.90;99.90
28761;DHT22;15917;50.014;8.352;2023-07-29T11:05:08;23.00;99.90
28761;DHT22;15917;50.014;8.352;2023-07-29T11:07:45;23.10;99.90
28761;DHT22;15917;50.014;8.352;2023-07-29T11:10:12;23.10;99.90
28761;DHT22;15917;50.014;8.352;2023-07-29T11:15:04;23.20;99.90
28761;DHT22;15917;50.014;8.352;2023-07-29T11:17:33;23.60;99.90
28761;DHT22;15917;50.014;8.352;2023-07-29T11:20:03;23.90;99.90
28761;DHT22;15917;50.014;8.352;2023-07-29T11:22:29;24.10;99.90
28761;DHT22;15917;50.014;8.352;2023-07-29T11:24:55;24.00;99.90
28761;DHT22;15917;50.014;8.352;2023-07-29T11:27:21;23.90;99.90
28761;DHT22;15917;50.014;8.352;2023-07-29T11:29:48;23.90;99.90
28761;DHT22;15917;50.014;8.352;2023-07-29T11:32:13;23.90;99.90
28761;DHT22;15917;50.014;8.352;2023-07-29T11:34:41;24.10;99.90
28761;DHT22;15917;50.014;8.352;2023-07-29T11:37:09;24.30;99.90
28761;DHT22;15917;50.014;8.352;2023-07-29T11:39:43;24.20;99.90
28761;DHT22;15917;50.014;8.352;2023-07-29T11:42:13;24.10;99.90
28761;DHT22;15917;50.014;8.352;2023-07-29T11:44:39;23.90;99.90
28761;DHT22;15917;50.014;8.352;2023-07-29T11:47:09;23.90;99.90
28761;DHT22;15917;50.014;8.352;2023-07-29T11:49:35;24.00;99.90
28761;DHT22;15917;50.014;8.352;2023-07-29T11:52:02;24.30;99.90
28761;DHT22;15917;50.014;8.352;2023-07-29T11:54:29;24.40;99.90
28761;DHT22;15917;50.014;8.352;2023-07-29T11:56:55;24.30;99.90
28761;DHT22;15917;50.014;8.352;2023-07-29T11:59:21;24.30;99.90
28761;DHT22;15917;50.014;8.352;2023-07-29T12:01:46;24.20;99.90
28761;DHT22;15917;50.014;8.352;2023-07-29T12:04:13;24.20;99.90
28761;DHT22;15917;50.014;8.352;2023-07-29T12:06:39;24.10;99.90
28761;DHT22;15917;50.014;8.352;2023-07-29T12:09:05;24.10;99.90
28761;DHT22;15917;50.014;8.352;2023-07-29T12:11:32;24.30;99.90
28761;DHT22;15917;50.014;8.352;2023-07-29T12:13:59;24.60;99.90
28761;DHT22;15917;50.014;8.352;2023-07-29T12:16:24;25.10;99.90
28761;DHT22;15917;50.014;8.352;2023-07-29T12:18:50;25.50;99.90
28761;DHT22;15917;50.014;8.352;2023-07-29T12:21:18;25.90;99.90
28761;DHT22;15917;50.014;8.352;2023-07-29T12:23:44;26.10;99.90
28761;DHT22;15917;50.014;8.352;2023-07-29T12:26:09;26.40;99.90
28761;DHT22;15917;50.014;8.352;2023-07-29T12:28:35;26.60;99.90
28761;DHT22;15917;50.014;8.352;2023-07-29T12:31:00;26.60;99.90
28761;DHT22;15917;50.014;8.352;2023-07-29T12:33:34;26.50;99.90
28761;DHT22;15917;50.014;8.352;2023-07-29T12:36:01;26.60;99.90
28761;DHT22;15917;50.014;8.352;2023-07-29T12:38:27;26.80;99.90
28761;DHT22;15917;50.014;8.352;2023-07-29T12:40:53;27.00;99.90
28761;DHT22;15917;50.014;8.352;2023-07-29T12:43:18;27.00;99.90
28761;DHT22;15917;50.014;8.352;2023-07-29T12:45:44;26.90;99.90
28761;DHT22;15917;50.014;8.352;2023-07-29T12:48:10;26.70;99.90
28761;DHT22;15917;50.014;8.352;2023-07-29T12:50:36;26.60;99.90
28761;DHT22;15917;50.014;8.352;2023-07-29T12:53:04;26.70;99.90
28761;DHT22;15917;50.014;8.352;2023-07-29T12:55:29;27.00;99.90
28761;DHT22;15917;50.014;8.352;2023-07-29T12:57:55;27.10;99.90
28761;DHT22;15917;50.014;8.352;2023-07-29T13:00:21;27.10;99.90
28761;DHT22;15917;50.014;8.352;2023-07-29T13:02:46;26.90;99.90
28761;DHT22;15917;50.014;8.352;2023-07-29T13:05:12;26.60;99.90
28761;DHT22;15917;50.014;8.352;2023-07-29T13:07:39;26.40;99.90
28761;DHT22;15917;50.014;8.352;2023-07-29T13:10:05;26.20;99.90
28761;DHT22;15917;50.014;8.352;2023-07-29T13:12:30;26.20;99.90
28761;DHT22;15917;50.014;8.352;2023-07-29T13:14:56;26.20;99.90
28761;DHT22;15917;50.014;8.352;2023-07-29T13:17:22;26.10;99.90
28761;DHT22;15917;50.014;8.352;2023-07-29T13:19:49;26.00;99.90
28761;DHT22;15917;50.014;8.352;2023-07-29T13:22:14;26.00;99.90
28761;DHT22;15917;50.014;8.352;2023-07-29T13:24:40;25.80;99.90
28761;DHT22;15917;50.014;8.352;2023-07-29T13:27:06;25.60;99.90
28761;DHT22;15917;50.014;8.352;2023-07-29T13:29:32;25.40;99.90
28761;DHT22;15917;50.014;8.352;2023-07-29T13:31:57;25.30;99.90
28761;DHT22;15917;50.014;8.352;2023-07-29T13:34:23;25.30;99.90
28761;DHT22;15917;50.014;8.352;2023-07-29T13:36:48;25.30;99.90
28761;DHT22;15917;50.014;8.352;2023-07-29T13:39:14;25.40;99.90
28761;DHT22;15917;50.014;8.352;2023-07-29T13:41:40;25.50;99.90
28761;DHT22;15917;50.014;8.352;2023-07-29T13:44:05;25.60;99.90
28761;DHT22;15917;50.014;8.352;2023-07-29T13:46:31;25.50;99.90
28761;DHT22;15917;50.014;8.352;2023-07-29T13:48:57;25.60;99.90
28761;DHT22;15917;50.014;8.352;2023-07-29T13:51:22;25.90;99.90
28761;DHT22;15917;50.014;8.352;2023-07-29T13:53:48;26.30;99.90
28761;DHT22;15917;50.014;8.352;2023-07-29T13:56:14;26.80;99.90
28761;DHT22;15917;50.014;8.352;2023-07-29T13:58:40;27.20;99.90
28761;DHT22;15917;50.014;8.352;2023-07-29T14:01:06;27.30;99.90
28761;DHT22;15917;50.014;8.352;2023-07-29T14:03:31;27.40;99.90
28761;DHT22;15917;50.014;8.352;2023-07-29T14:05:57;27.30;99.90
28761;DHT22;15917;50.014;8.352;2023-07-29T14:08:22;27.50;99.90
28761;DHT22;15917;50.014;8.352;2023-07-29T14:10:49;27.20;99.90
28761;DHT22;15917;50.014;8.352;2023-07-29T14:13:15;26.90;99.90
28761;DHT22;15917;50.014;8.352;2023-07-29T14:15:40;26.90;99.90
28761;DHT22;15917;50.014;8.352;2023-07-29T14:18:06;27.00;99.90
28761;DHT22;15917;50.014;8.352;2023-07-29T14:20:32;26.90;99.90
28761;DHT22;15917;50.014;8.352;2023-07-29T14:22:58;26.70;99.90
28761;DHT22;15917;50.014;8.352;2023-07-29T14:25:23;27.00;99.90
28761;DHT22;15917;50.014;8.352;2023-07-29T14:27:50;27.20;99.90
28761;DHT22;15917;50.014;8.352;2023-07-29T14:30:15;27.60;99.90
28761;DHT22;15917;50.014;8.352;2023-07-29T14:32:41;27.80;99.90
28761;DHT22;15917;50.014;8.352;2023-07-29T14:35:07;27.60;99.90
28761;DHT22;15917;50.014;8.352;2023-07-29T14:37:34;27.20;99.90
28761;DHT22;15917;50.014;8.352;2023-07-29T14:40:00;26.90;99.90
28761;DHT22;15917;50.014;8.352;2023-07-29T14:42:26;26.60;99.90
28761;DHT22;15917;50.014;8.352;2023-07-29T14:44:52;26.60;99.90
28761;DHT22;15917;50.014;8.352;2023-07-29T14:47:19;26.80;99.90
28761;DHT22;15917;50.014;8.352;2023-07-29T14:49:45;26.70;99.90
28761;DHT22;15917;50.014;8.352;2023-07-29T14:52:11;26.60;99.90
28761;DHT22;15917;50.014;8.352;2023-07-29T14:54:36;26.50;99.90
28761;DHT22;15917;50.014;8.352;2023-07-29T14:57:02;26.30;99.90
28761;DHT22;15917;50.014;8.352;2023-07-29T14:59:28;26.10;99.90
28761;DHT22;15917;50.014;8.352;2023-07-29T15:01:53;26.40;99.90
28761;DHT22;15917;50.014;8.352;2023-07-29T15:04:19;26.80;99.90
28761;DHT22;15917;50.014;8.352;2023-07-29T15:06:45;26.80;99.90
28761;DHT22;15917;50.014;8.352;2023-07-29T15:09:11;26.60;99.90
28761;DHT22;15917;50.014;8.352;2023-07-29T15:11:36;26.50;99.90
28761;DHT22;15917;50.014;8.352;2023-07-29T15:14:02;26.70;99.90
28761;DHT22;15917;50.014;8.352;2023-07-29T15:16:30;27.00;99.90
28761;DHT22;15917;50.014;8.352;2023-07-29T15:18:57;27.40;99.90
28761;DHT22;15917;50.014;8.352;2023-07-29T15:21:23;27.50;99.90
28761;DHT22;15917;50.014;8.352;2023-07-29T15:23:48;27.20;99.90
28761;DHT22;15917;50.014;8.352;2023-07-29T15:26:14;26.90;99.90
28761;DHT22;15917;50.014;8.352;2023-07-29T15:28:39;26.70;99.90
28761;DHT22;15917;50.014;8.352;2023-07-29T15:31:05;26.50;99.90
28761;DHT22;15917;50.014;8.352;2023-07-29T15:33:31;26.30;99.90
28761;DHT22;15917;50.014;8.352;2023-07-29T15:35:59;26.10;99.90
28761;DHT22;15917;50.014;8.352;2023-07-29T15:38:25;26.30;99.90
28761;DHT22;15917;50.014;8.352;2023-07-29T15:40:51;26.30;99.90
28761;DHT22;15917;50.014;8.352;2023-07-29T15:43:17;26.20;99.90